CW6020 Teulada ES current weather conditions

sailwx.info

Wind from 045 at 0 knots gusting 2

Air temperature 16.1° C
Dewpoint 15.1° C

Last reported at 2014-Nov-22 03:40 UTC.
Time now 2014-Nov-22 04:48 UTC

Location: N 38°44' E 000°06'.
View on Google Maps.

See reports from other nearby stations

  
Tides and Currents Weather Stations Pressure Air Temp Water Temp Dewpoint Dewpoint Depression Visibility Wind Speed Wind Dir Waves Ship Positions
date/time (UTC)wind fromknots sea level pressurealtimeterstation pressurevisibilityair tempwater tempwave heightnotes
2014-Nov-22 03:40 045 0 gusting 2 16.1
2014-Nov-22 03:20 255 0 gusting 1 16.1
2014-Nov-22 03:10 240 0 gusting 1 16.1
2014-Nov-22 03:00 165 1 gusting 3 16.1
2014-Nov-22 02:40 090 0 gusting 1 16.1
2014-Nov-22 02:30 232 0 gusting 1 16.1
2014-Nov-22 02:10 150 0 gusting 1 16.1
2014-Nov-22 01:50 112 1 gusting 2 16.1
2014-Nov-22 01:40 157 1 gusting 3 16.1
2014-Nov-22 01:10 105 0 gusting 1 16.7
2014-Nov-22 01:00 060 1 gusting 2 16.7
2014-Nov-22 00:50 225 1 gusting 1 16.7
2014-Nov-22 00:40 270 1 gusting 2 16.7
2014-Nov-22 00:30 067 0 gusting 1 16.7
2014-Nov-22 00:20 307 1 gusting 3 16.7
2014-Nov-22 00:00 135 2 gusting 3 16.7
2014-Nov-21 23:40 135 0 gusting 1 16.7
2014-Nov-21 23:20 105 0 gusting 1 16.7
2014-Nov-21 23:10 120 0 gusting 1 16.7
2014-Nov-21 23:00 180 0 gusting 1 16.7
2014-Nov-21 22:50 150 0 gusting 1 16.7
2014-Nov-21 22:40 210 1 gusting 2 16.7
2014-Nov-21 22:30 075 0 gusting 1 16.7
2014-Nov-21 22:20 150 1 gusting 1 16.7
2014-Nov-21 22:10 060 0 gusting 2 16.7
2014-Nov-21 21:50 195 1 gusting 1 16.1
2014-Nov-21 21:40 180 2 gusting 5 16.1
2014-Nov-21 21:30 195 1 gusting 3 16.1
2014-Nov-21 21:10 007 1 gusting 1 16.1
2014-Nov-21 21:00 352 1 gusting 2 16.1
2014-Nov-21 20:30 255 1 gusting 3 16.1
2014-Nov-21 20:20 315 1 gusting 2 16.1
2014-Nov-21 20:00 285 1 gusting 3 16.1
2014-Nov-21 19:50 060 1 gusting 5 16.1
2014-Nov-21 19:20 045 0 gusting 1 16.1
2014-Nov-21 18:40 240 1 gusting 5 16.7
2014-Nov-21 18:30 075 0 gusting 1 16.7
2014-Nov-21 17:50 307 1 gusting 2 16.7
2014-Nov-21 17:20 16.7
2014-Nov-21 17:10 030 1 gusting 2 16.7
2014-Nov-21 16:50 337 2 gusting 3 16.7
2014-Nov-21 16:30 315 3 gusting 8 17.2
2014-Nov-21 16:10 315 2 gusting 4 17.2
2014-Nov-21 16:00 330 3 gusting 7 17.2
2014-Nov-21 15:50 285 2 gusting 3 17.8
2014-Nov-21 15:30 330 3 gusting 6 17.8
2014-Nov-21 15:10 270 4 gusting 7 18.3
2014-Nov-21 15:00 337 5 gusting 7 18.3
2014-Nov-21 14:20 337 2 gusting 6 20.0
2014-Nov-21 14:00 015 5 gusting 10 19.4
2014-Nov-21 13:40 345 2 gusting 4 19.4
2014-Nov-21 13:30 330 5 gusting 9 20.6
2014-Nov-21 13:10 307 3 gusting 6 19.4
2014-Nov-21 13:00 326 3 gusting 6 19.4
2014-Nov-21 12:40 352 5 gusting 11 19.4
2014-Nov-21 12:30 345 4 gusting 6 19.4
2014-Nov-21 12:00 315 1 gusting 4 19.4
2014-Nov-21 11:40 150 2 gusting 3 19.4
2014-Nov-21 10:50 240 1 gusting 3 20.0
2014-Nov-21 10:40 075 1 gusting 3 20.0
2014-Nov-21 10:30 330 1 gusting 3 20.0
2014-Nov-21 10:10 277 1 gusting 2 19.4
2014-Nov-21 10:00 135 6 gusting 7 18.9
2014-Nov-21 09:30 322 3 gusting 7 18.3
2014-Nov-21 09:10 300 2 gusting 8 17.8
2014-Nov-21 08:50 015 2 gusting 6 17.2
2014-Nov-21 08:30 17.2
2014-Nov-21 08:00 345 5 gusting 9 16.7
2014-Nov-21 07:40 322 6 gusting 9 16.7
2014-Nov-21 07:20 322 3 gusting 6 16.7
2014-Nov-21 07:10 352 6 gusting 12 16.7
2014-Nov-21 06:50 322 2 gusting 6 16.1
2014-Nov-21 06:40 322 6 gusting 9 16.1
2014-Nov-21 06:20 277 1 gusting 4 16.1
2014-Nov-21 06:10 090 1 gusting 5 16.1
2014-Nov-21 05:50 337 3 gusting 6 16.1
2014-Nov-21 05:40 015 3 gusting 6 16.1
2014-Nov-21 05:20 225 1 gusting 3 16.1
2014-Nov-21 05:10 225 0 gusting 2 16.1
2014-Nov-21 05:00 015 3 gusting 6 16.1
2014-Nov-21 04:30 180 2 gusting 4 16.1
2014-Nov-21 04:10 135 1 gusting 3 16.1
2014-Nov-21 04:00 150 0 gusting 1 16.1
2014-Nov-21 03:50 015 2 gusting 3 16.1
2014-Nov-21 03:30 105 1 gusting 3 16.1
2014-Nov-21 03:10 180 0 gusting 1 16.1
2014-Nov-21 03:00 090 2 gusting 3 16.1
2014-Nov-21 02:50 075 16.1
2014-Nov-21 02:30 165 16.1
2014-Nov-21 02:10 150 16.1
2014-Nov-21 01:50 270 2 gusting 6 16.7
2014-Nov-21 01:40 015 1 gusting 2 16.7
2014-Nov-21 01:20 352 1 gusting 4 16.7
2014-Nov-21 01:10 060 1 gusting 2 16.7
2014-Nov-21 01:00 105 1 gusting 2 16.7
2014-Nov-21 00:30 105 2 gusting 3 16.1
2014-Nov-21 00:00 090 0 gusting 1 16.7
2014-Nov-20 23:30 180 16.7
2014-Nov-20 23:10 090 0 gusting 1 16.7
2014-Nov-20 22:50 090 0 gusting 1 16.7
2014-Nov-20 22:20 180 1 gusting 3 16.7
2014-Nov-20 22:10 255 0 gusting 1 16.7
2014-Nov-20 22:00 225 2 gusting 4 16.7
2014-Nov-20 21:50 045 3 gusting 6 16.7
2014-Nov-20 21:10 180 1 gusting 2 16.7
2014-Nov-20 20:40 135 0 gusting 1 16.7
2014-Nov-20 20:30 150 1 gusting 1 16.7
2014-Nov-20 20:00 165 1 gusting 2 16.7
2014-Nov-20 19:50 300 1 gusting 3 16.7
2014-Nov-20 19:40 255 4 gusting 6 16.7
2014-Nov-20 19:20 225 1 gusting 2 16.7
2014-Nov-20 19:10 330 0 gusting 1 16.7
2014-Nov-20 18:50 075 0 gusting 1 16.7
2014-Nov-20 18:30 105 1 gusting 3 16.1
2014-Nov-20 18:00 180 1 gusting 3 16.1
2014-Nov-20 17:50 030 1 gusting 3 16.1
2014-Nov-20 17:40 135 1 gusting 1 16.1
2014-Nov-20 17:30 135 3 gusting 6 16.1
2014-Nov-20 17:00 255 1 gusting 4 16.7
2014-Nov-20 16:40 315 1 gusting 3 16.7
2014-Nov-20 16:20 172 0 gusting 1 17.2
2014-Nov-20 16:00 292 1 gusting 3 17.8
2014-Nov-20 15:40 315 1 gusting 2 18.3
2014-Nov-20 15:30 277 1 gusting 2 17.8
2014-Nov-20 15:10 187 1 gusting 3 17.8
2014-Nov-20 15:00 165 4 gusting 10 17.8
2014-Nov-20 14:50 270 2 gusting 5 17.8
2014-Nov-20 14:20 270 1 gusting 3 17.8
2014-Nov-20 14:00 292 1 gusting 3 18.9
2014-Nov-20 13:10 307 3 gusting 5 18.9
2014-Nov-20 13:00 015 3 gusting 5 18.3
2014-Nov-20 12:40 285 6 gusting 10 18.3
2014-Nov-20 12:30 030 1 gusting 1 18.3
2014-Nov-20 12:00 015 2 gusting 3 18.3
2014-Nov-20 11:40 075 1 gusting 3 18.3
2014-Nov-20 11:30 18.3
2014-Nov-20 11:10 300 3 gusting 4 19.4
2014-Nov-20 10:50 075 2 gusting 3 18.9
2014-Nov-20 10:20 090 3 gusting 4 17.2
2014-Nov-20 09:50 300 3 gusting 8 16.7
2014-Nov-20 09:40 270 6 gusting 9 16.7
2014-Nov-20 09:30 082 3 gusting 5 16.7
2014-Nov-20 09:10 16.1
2014-Nov-20 09:00 315 3 gusting 6 16.1
2014-Nov-20 08:50 322 1 gusting 3 16.1
2014-Nov-20 08:30 285 3 gusting 6 16.1
2014-Nov-20 08:10 255 1 gusting 3 15.6
2014-Nov-20 08:00 277 2 gusting 4 15.6
2014-Nov-20 07:50 277 6 gusting 11 15.0
2014-Nov-20 07:40 315 4 gusting 10 15.0
2014-Nov-20 07:20 14.4
2014-Nov-20 07:00 007 4 gusting 8 14.4
2014-Nov-20 06:50 007 2 gusting 3 14.4
2014-Nov-20 06:30 352 4 gusting 7 14.4
2014-Nov-20 06:10 330 3 gusting 6 14.4
2014-Nov-20 06:00 337 3 gusting 6 14.4
2014-Nov-20 05:40 15.0
2014-Nov-20 05:20 300 3 gusting 6 14.4
2014-Nov-20 05:00 352 1 gusting 6 14.4
2014-Nov-20 04:50 330 3 gusting 6 15.0
2014-Nov-20 04:10 14.4
2014-Nov-20 04:00 345 6 gusting 9 14.4